sensor_id;sensor_type;location;lat;lon;timestamp;temperature;humidity
8914;DHT22;4492;48.736;9.092;2022-08-21T00:00:26;15.40;98.30
8914;DHT22;4492;48.736;9.092;2022-08-21T00:02:59;15.50;98.10
8914;DHT22;4492;48.736;9.092;2022-08-21T00:05:26;15.60;98.00
8914;DHT22;4492;48.736;9.092;2022-08-21T00:07:52;15.60;98.00
8914;DHT22;4492;48.736;9.092;2022-08-21T00:10:18;15.60;98.00
8914;DHT22;4492;48.736;9.092;2022-08-21T00:12:45;15.60;98.10
8914;DHT22;4492;48.736;9.092;2022-08-21T00:15:14;15.60;98.00
8914;DHT22;4492;48.736;9.092;2022-08-21T00:17:40;15.50;98.00
8914;DHT22;4492;48.736;9.092;2022-08-21T00:20:08;15.40;98.10
8914;DHT22;4492;48.736;9.092;2022-08-21T00:22:35;15.40;98.20
8914;DHT22;4492;48.736;9.092;2022-08-21T00:25:01;15.40;98.30
8914;DHT22;4492;48.736;9.092;2022-08-21T00:27:27;15.30;98.40
8914;DHT22;4492;48.736;9.092;2022-08-21T00:29:53;15.30;98.50
8914;DHT22;4492;48.736;9.092;2022-08-21T00:32:24;15.30;98.50
8914;DHT22;4492;48.736;9.092;2022-08-21T00:34:50;15.30;98.50
8914;DHT22;4492;48.736;9.092;2022-08-21T00:37:16;15.30;98.50
8914;DHT22;4492;48.736;9.092;2022-08-21T00:39:42;15.40;98.40
8914;DHT22;4492;48.736;9.092;2022-08-21T00:42:08;15.40;98.40
8914;DHT22;4492;48.736;9.092;2022-08-21T00:44:34;15.40;98.40
8914;DHT22;4492;48.736;9.092;2022-08-21T00:46:59;15.30;98.40
8914;DHT22;4492;48.736;9.092;2022-08-21T00:49:25;15.40;98.50
8914;DHT22;4492;48.736;9.092;2022-08-21T00:51:54;15.40;98.60
8914;DHT22;4492;48.736;9.092;2022-08-21T00:54:24;15.30;98.60
8914;DHT22;4492;48.736;9.092;2022-08-21T00:56:53;15.20;98.70
8914;DHT22;4492;48.736;9.092;2022-08-21T00:59:20;15.20;99.00
8914;DHT22;4492;48.736;9.092;2022-08-21T01:01:47;15.10;99.10
8914;DHT22;4492;48.736;9.092;2022-08-21T01:04:13;15.10;99.20
8914;DHT22;4492;48.736;9.092;2022-08-21T01:06:39;15.10;99.30
8914;DHT22;4492;48.736;9.092;2022-08-21T01:09:07;15.00;99.50
8914;DHT22;4492;48.736;9.092;2022-08-21T01:11:34;14.90;99.70
8914;DHT22;4492;48.736;9.092;2022-08-21T01:13:59;14.80;99.90
8914;DHT22;4492;48.736;9.092;2022-08-21T01:16:25;14.80;99.90
8914;DHT22;4492;48.736;9.092;2022-08-21T01:18:51;14.70;99.90
8914;DHT22;4492;48.736;9.092;2022-08-21T01:21:22;14.70;99.90
8914;DHT22;4492;48.736;9.092;2022-08-21T01:23:51;14.60;99.90
8914;DHT22;4492;48.736;9.092;2022-08-21T01:26:21;14.60;99.90
8914;DHT22;4492;48.736;9.092;2022-08-21T01:29:00;14.50;99.90
8914;DHT22;4492;48.736;9.092;2022-08-21T01:31:27;14.50;99.90
8914;DHT22;4492;48.736;9.092;2022-08-21T01:33:55;14.50;99.90
8914;DHT22;4492;48.736;9.092;2022-08-21T01:36:21;14.50;99.90
8914;DHT22;4492;48.736;9.092;2022-08-21T01:38:47;14.40;99.90
8914;DHT22;4492;48.736;9.092;2022-08-21T01:41:13;14.40;99.90
8914;DHT22;4492;48.736;9.092;2022-08-21T01:43:40;14.30;99.90
8914;DHT22;4492;48.736;9.092;2022-08-21T01:46:06;14.30;99.90
8914;DHT22;4492;48.736;9.092;2022-08-21T01:48:32;14.10;99.90
8914;DHT22;4492;48.736;9.092;2022-08-21T01:50:57;14.00;99.90
8914;DHT22;4492;48.736;9.092;2022-08-21T01:53:23;13.90;99.90
8914;DHT22;4492;48.736;9.092;2022-08-21T01:55:48;13.70;99.90
8914;DHT22;4492;48.736;9.092;2022-08-21T01:58:14;13.60;99.90
8914;DHT22;4492;48.736;9.092;2022-08-21T02:00:40;13.50;99.90
8914;DHT22;4492;48.736;9.092;2022-08-21T02:03:06;13.40;99.90
8914;DHT22;4492;48.736;9.092;2022-08-21T02:05:32;13.30;99.90
8914;DHT22;4492;48.736;9.092;2022-08-21T02:07:58;13.20;99.90
8914;DHT22;4492;48.736;9.092;2022-08-21T02:10:27;13.10;99.90
8914;DHT22;4492;48.736;9.092;2022-08-21T02:12:54;13.00;99.90
8914;DHT22;4492;48.736;9.092;2022-08-21T02:15:20;13.00;99.90
8914;DHT22;4492;48.736;9.092;2022-08-21T02:17:49;12.90;99.90
8914;DHT22;4492;48.736;9.092;2022-08-21T02:20:25;12.90;99.90
8914;DHT22;4492;48.736;9.092;2022-08-21T02:22:51;12.80;99.90
8914;DHT22;4492;48.736;9.092;2022-08-21T02:25:19;12.70;99.90
8914;DHT22;4492;48.736;9.092;2022-08-21T02:27:45;12.70;99.90
8914;DHT22;4492;48.736;9.092;2022-08-21T02:30:16;12.60;99.90
8914;DHT22;4492;48.736;9.092;2022-08-21T02:32:42;12.50;99.90
8914;DHT22;4492;48.736;9.092;2022-08-21T02:35:09;12.40;99.90
8914;DHT22;4492;48.736;9.092;2022-08-21T02:37:43;12.40;99.90
8914;DHT22;4492;48.736;9.092;2022-08-21T02:40:10;12.30;99.90
8914;DHT22;4492;48.736;9.092;2022-08-21T02:42:36;12.20;99.90
8914;DHT22;4492;48.736;9.092;2022-08-21T02:45:03;12.20;99.90
8914;DHT22;4492;48.736;9.092;2022-08-21T02:47:28;12.20;99.90
8914;DHT22;4492;48.736;9.092;2022-08-21T02:49:54;12.20;99.90
8914;DHT22;4492;48.736;9.092;2022-08-21T02:52:19;12.10;99.90
8914;DHT22;4492;48.736;9.092;2022-08-21T02:54:47;12.10;99.90
8914;DHT22;4492;48.736;9.092;2022-08-21T02:57:12;12.10;99.90
8914;DHT22;4492;48.736;9.092;2022-08-21T02:59:38;12.10;99.90
8914;DHT22;4492;48.736;9.092;2022-08-21T03:02:04;12.00;99.90
8914;DHT22;4492;48.736;9.092;2022-08-21T03:04:29;12.00;99.90
8914;DHT22;4492;48.736;9.092;2022-08-21T03:06:55;11.90;99.90
8914;DHT22;4492;48.736;9.092;2022-08-21T03:09:21;11.90;99.90
8914;DHT22;4492;48.736;9.092;2022-08-21T03:11:46;11.90;99.90
8914;DHT22;4492;48.736;9.092;2022-08-21T03:14:12;11.80;99.90
8914;DHT22;4492;48.736;9.092;2022-08-21T03:16:38;11.80;99.90
8914;DHT22;4492;48.736;9.092;2022-08-21T03:19:03;11.80;99.90
8914;DHT22;4492;48.736;9.092;2022-08-21T03:21:29;11.70;99.90
8914;DHT22;4492;48.736;9.092;2022-08-21T03:23:54;11.60;99.90
8914;DHT22;4492;48.736;9.092;2022-08-21T03:26:20;11.60;99.90
8914;DHT22;4492;48.736;9.092;2022-08-21T03:28:45;11.50;99.90
8914;DHT22;4492;48.736;9.092;2022-08-21T03:31:11;11.50;99.90
8914;DHT22;4492;48.736;9.092;2022-08-21T03:33:36;11.50;99.90
8914;DHT22;4492;48.736;9.092;2022-08-21T03:36:07;11.50;99.90
8914;DHT22;4492;48.736;9.092;2022-08-21T03:38:34;11.50;99.90
8914;DHT22;4492;48.736;9.092;2022-08-21T03:41:01;11.50;99.90
8914;DHT22;4492;48.736;9.092;2022-08-21T03:43:27;11.50;99.90
8914;DHT22;4492;48.736;9.092;2022-08-21T03:45:52;11.50;99.90
8914;DHT22;4492;48.736;9.092;2022-08-21T03:48:18;11.40;99.90
8914;DHT22;4492;48.736;9.092;2022-08-21T03:50:44;11.40;99.90
8914;DHT22;4492;48.736;9.092;2022-08-21T03:53:14;11.40;99.90
8914;DHT22;4492;48.736;9.092;2022-08-21T03:55:40;11.30;99.90
8914;DHT22;4492;48.736;9.092;2022-08-21T03:58:05;11.30;99.90
8914;DHT22;4492;48.736;9.092;2022-08-21T04:00:31;11.30;99.90
8914;DHT22;4492;48.736;9.092;2022-08-21T04:02:57;11.30;99.90
8914;DHT22;4492;48.736;9.092;2022-08-21T04:05:23;11.20;99.90
8914;DHT22;4492;48.736;9.092;2022-08-21T04:08:01;11.20;99.90
8914;DHT22;4492;48.736;9.092;2022-08-21T04:10:28;11.20;99.90
8914;DHT22;4492;48.736;9.092;2022-08-21T04:12:55;11.10;99.90
8914;DHT22;4492;48.736;9.092;2022-08-21T04:15:21;11.20;99.90
8914;DHT22;4492;48.736;9.092;2022-08-21T04:17:47;11.10;99.90
8914;DHT22;4492;48.736;9.092;2022-08-21T04:20:14;11.10;99.90
8914;DHT22;4492;48.736;9.092;2022-08-21T04:22:40;11.10;99.90
8914;DHT22;4492;48.736;9.092;2022-08-21T04:25:06;11.10;99.90
8914;DHT22;4492;48.736;9.092;2022-08-21T04:27:33;11.00;99.90
8914;DHT22;4492;48.736;9.092;2022-08-21T04:29:58;11.00;99.90
8914;DHT22;4492;48.736;9.092;2022-08-21T04:32:26;11.00;99.90
8914;DHT22;4492;48.736;9.092;2022-08-21T04:35:01;11.00;99.90
8914;DHT22;4492;48.736;9.092;2022-08-21T04:37:29;11.00;99.90
8914;DHT22;4492;48.736;9.092;2022-08-21T04:39:54;10.90;99.90
8914;DHT22;4492;48.736;9.092;2022-08-21T04:42:23;10.90;99.90
8914;DHT22;4492;48.736;9.092;2022-08-21T04:44:49;10.90;99.90
8914;DHT22;4492;48.736;9.092;2022-08-21T04:47:15;10.90;99.90
8914;DHT22;4492;48.736;9.092;2022-08-21T04:49:42;10.90;99.90
8914;DHT22;4492;48.736;9.092;2022-08-21T04:52:08;10.90;99.90
8914;DHT22;4492;48.736;9.092;2022-08-21T04:54:34;11.00;99.90
8914;DHT22;4492;48.736;9.092;2022-08-21T04:57:02;11.00;99.90
8914;DHT22;4492;48.736;9.092;2022-08-21T04:59:38;11.00;99.90
8914;DHT22;4492;48.736;9.092;2022-08-21T05:02:06;11.10;99.90
8914;DHT22;4492;48.736;9.092;2022-08-21T05:04:34;11.10;99.90
8914;DHT22;4492;48.736;9.092;2022-08-21T05:07:04;11.20;99.90
8914;DHT22;4492;48.736;9.092;2022-08-21T05:09:31;11.20;99.90
8914;DHT22;4492;48.736;9.092;2022-08-21T05:11:57;11.30;99.90
8914;DHT22;4492;48.736;9.092;2022-08-21T05:14:23;11.40;99.90
8914;DHT22;4492;48.736;9.092;2022-08-21T05:16:49;11.50;99.90
8914;DHT22;4492;48.736;9.092;2022-08-21T05:19:14;11.60;99.90
8914;DHT22;4492;48.736;9.092;2022-08-21T05:21:43;11.80;99.90
8914;DHT22;4492;48.736;9.092;2022-08-21T05:24:09;11.80;99.90
8914;DHT22;4492;48.736;9.092;2022-08-21T05:26:35;11.90;99.90
8914;DHT22;4492;48.736;9.092;2022-08-21T05:29:02;12.00;99.90
8914;DHT22;4492;48.736;9.092;2022-08-21T05:31:28;12.10;99.90
8914;DHT22;4492;48.736;9.092;2022-08-21T05:33:53;12.10;99.90
8914;DHT22;4492;48.736;9.092;2022-08-21T05:36:19;12.20;99.90
8914;DHT22;4492;48.736;9.092;2022-08-21T05:38:45;12.30;99.90
8914;DHT22;4492;48.736;9.092;2022-08-21T05:41:10;12.40;99.90
8914;DHT22;4492;48.736;9.092;2022-08-21T05:43:36;12.50;99.90
8914;DHT22;4492;48.736;9.092;2022-08-21T05:46:06;12.60;99.90
8914;DHT22;4492;48.736;9.092;2022-08-21T05:48:32;12.70;99.90
8914;DHT22;4492;48.736;9.092;2022-08-21T05:51:03;12.90;99.90
8914;DHT22;4492;48.736;9.092;2022-08-21T05:53:29;13.00;99.90
8914;DHT22;4492;48.736;9.092;2022-08-21T05:55:54;13.20;99.90
8914;DHT22;4492;48.736;9.092;2022-08-21T05:58:21;13.40;99.90
8914;DHT22;4492;48.736;9.092;2022-08-21T06:00:49;13.50;99.90
8914;DHT22;4492;48.736;9.092;2022-08-21T06:03:17;13.60;99.90
8914;DHT22;4492;48.736;9.092;2022-08-21T06:05:43;13.80;99.90
8914;DHT22;4492;48.736;9.092;2022-08-21T06:08:09;13.90;99.90
8914;DHT22;4492;48.736;9.092;2022-08-21T06:10:34;14.10;99.90
8914;DHT22;4492;48.736;9.092;2022-08-21T06:13:00;14.30;99.90
8914;DHT22;4492;48.736;9.092;2022-08-21T06:15:26;14.50;99.90
8914;DHT22;4492;48.736;9.092;2022-08-21T06:17:52;14.70;99.90
8914;DHT22;4492;48.736;9.092;2022-08-21T06:20:18;14.90;99.90
8914;DHT22;4492;48.736;9.092;2022-08-21T06:22:44;15.20;99.90
8914;DHT22;4492;48.736;9.092;2022-08-21T06:25:09;15.40;99.90
8914;DHT22;4492;48.736;9.092;2022-08-21T06:27:35;15.70;99.90
8914;DHT22;4492;48.736;9.092;2022-08-21T06:30:02;15.90;99.90
8914;DHT22;4492;48.736;9.092;2022-08-21T06:32:28;16.10;99.90
8914;DHT22;4492;48.736;9.092;2022-08-21T06:34:53;16.30;99.90
8914;DHT22;4492;48.736;9.092;2022-08-21T06:37:19;16.60;99.90
8914;DHT22;4492;48.736;9.092;2022-08-21T06:39:44;16.80;99.90
8914;DHT22;4492;48.736;9.092;2022-08-21T06:42:14;16.90;99.90
8914;DHT22;4492;48.736;9.092;2022-08-21T06:44:40;17.10;99.90
8914;DHT22;4492;48.736;9.092;2022-08-21T06:47:05;17.30;99.90
8914;DHT22;4492;48.736;9.092;2022-08-21T06:49:31;17.50;99.90
8914;DHT22;4492;48.736;9.092;2022-08-21T06:51:56;17.60;99.90
8914;DHT22;4492;48.736;9.092;2022-08-21T06:54:22;17.70;99.90
8914;DHT22;4492;48.736;9.092;2022-08-21T06:56:47;17.90;99.60
8914;DHT22;4492;48.736;9.092;2022-08-21T06:59:13;18.00;99.40
8914;DHT22;4492;48.736;9.092;2022-08-21T07:01:38;18.10;98.90
8914;DHT22;4492;48.736;9.092;2022-08-21T07:04:04;18.30;98.70
8914;DHT22;4492;48.736;9.092;2022-08-21T07:06:30;18.40;98.50
8914;DHT22;4492;48.736;9.092;2022-08-21T07:08:55;18.50;97.40
8914;DHT22;4492;48.736;9.092;2022-08-21T07:11:23;18.70;97.20
8914;DHT22;4492;48.736;9.092;2022-08-21T07:13:49;18.70;97.30
8914;DHT22;4492;48.736;9.092;2022-08-21T07:16:16;18.80;97.00
8914;DHT22;4492;48.736;9.092;2022-08-21T07:18:42;18.80;97.00
8914;DHT22;4492;48.736;9.092;2022-08-21T07:21:08;18.90;97.10
8914;DHT22;4492;48.736;9.092;2022-08-21T07:23:37;19.00;96.90
8914;DHT22;4492;48.736;9.092;2022-08-21T07:26:04;19.20;96.20
8914;DHT22;4492;48.736;9.092;2022-08-21T07:28:30;19.30;95.90
8914;DHT22;4492;48.736;9.092;2022-08-21T07:30:57;19.40;95.40
8914;DHT22;4492;48.736;9.092;2022-08-21T07:33:24;19.40;95.30
8914;DHT22;4492;48.736;9.092;2022-08-21T07:35:50;19.50;95.00
8914;DHT22;4492;48.736;9.092;2022-08-21T07:38:16;19.60;95.00
8914;DHT22;4492;48.736;9.092;2022-08-21T07:40:41;19.70;95.00
8914;DHT22;4492;48.736;9.092;2022-08-21T07:43:07;19.80;94.90
8914;DHT22;4492;48.736;9.092;2022-08-21T07:45:33;20.00;94.20
8914;DHT22;4492;48.736;9.092;2022-08-21T07:47:59;20.10;93.90
8914;DHT22;4492;48.736;9.092;2022-08-21T07:50:25;20.20;93.60
8914;DHT22;4492;48.736;9.092;2022-08-21T07:52:51;20.40;93.00
8914;DHT22;4492;48.736;9.092;2022-08-21T07:55:19;20.40;92.80
8914;DHT22;4492;48.736;9.092;2022-08-21T07:57:45;20.60;93.10
8914;DHT22;4492;48.736;9.092;2022-08-21T08:00:15;20.70;91.80
8914;DHT22;4492;48.736;9.092;2022-08-21T08:02:44;20.70;91.40
8914;DHT22;4492;48.736;9.092;2022-08-21T08:05:11;20.70;90.10
8914;DHT22;4492;48.736;9.092;2022-08-21T08:07:37;20.70;89.50
8914;DHT22;4492;48.736;9.092;2022-08-21T08:10:03;20.70;87.70
8914;DHT22;4492;48.736;9.092;2022-08-21T08:12:29;20.80;84.90
8914;DHT22;4492;48.736;9.092;2022-08-21T08:14:59;20.90;84.50
8914;DHT22;4492;48.736;9.092;2022-08-21T08:17:26;20.90;83.50
8914;DHT22;4492;48.736;9.092;2022-08-21T08:19:52;21.10;83.70
8914;DHT22;4492;48.736;9.092;2022-08-21T08:22:21;21.20;83.10
8914;DHT22;4492;48.736;9.092;2022-08-21T08:24:50;21.20;83.70
8914;DHT22;4492;48.736;9.092;2022-08-21T08:27:17;21.30;83.80
8914;DHT22;4492;48.736;9.092;2022-08-21T08:29:43;21.40;82.70
8914;DHT22;4492;48.736;9.092;2022-08-21T08:32:09;21.50;82.90
8914;DHT22;4492;48.736;9.092;2022-08-21T08:34:37;21.70;85.10
8914;DHT22;4492;48.736;9.092;2022-08-21T08:37:04;21.80;83.00
8914;DHT22;4492;48.736;9.092;2022-08-21T08:39:33;21.90;83.50
8914;DHT22;4492;48.736;9.092;2022-08-21T08:42:09;22.00;82.60
8914;DHT22;4492;48.736;9.092;2022-08-21T08:44:42;22.10;82.30
8914;DHT22;4492;48.736;9.092;2022-08-21T08:47:10;22.20;82.70
8914;DHT22;4492;48.736;9.092;2022-08-21T08:49:43;22.30;81.80
8914;DHT22;4492;48.736;9.092;2022-08-21T08:54:47;22.40;80.80
8914;DHT22;4492;48.736;9.092;2022-08-21T08:57:20;22.50;79.60
8914;DHT22;4492;48.736;9.092;2022-08-21T08:59:50;22.60;78.70
8914;DHT22;4492;48.736;9.092;2022-08-21T09:02:17;22.50;79.10
8914;DHT22;4492;48.736;9.092;2022-08-21T09:04:46;22.50;80.30
8914;DHT22;4492;48.736;9.092;2022-08-21T09:07:30;22.60;79.80
8914;DHT22;4492;48.736;9.092;2022-08-21T09:10:13;22.80;78.90
8914;DHT22;4492;48.736;9.092;2022-08-21T09:13:02;23.00;78.80
8914;DHT22;4492;48.736;9.092;2022-08-21T09:15:42;23.20;76.60
8914;DHT22;4492;48.736;9.092;2022-08-21T09:21:53;23.30;74.90
8914;DHT22;4492;48.736;9.092;2022-08-21T09:27:04;23.60;73.60
8914;DHT22;4492;48.736;9.092;2022-08-21T09:29:35;23.70;74.40
8914;DHT22;4492;48.736;9.092;2022-08-21T09:32:06;23.70;73.80
8914;DHT22;4492;48.736;9.092;2022-08-21T09:34:34;23.90;72.50
8914;DHT22;4492;48.736;9.092;2022-08-21T09:37:00;24.00;72.50
8914;DHT22;4492;48.736;9.092;2022-08-21T09:39:31;24.10;71.50
8914;DHT22;4492;48.736;9.092;2022-08-21T09:42:00;24.20;71.30
8914;DHT22;4492;48.736;9.092;2022-08-21T09:44:31;24.40;71.20
8914;DHT22;4492;48.736;9.092;2022-08-21T09:46:58;24.40;70.50
8914;DHT22;4492;48.736;9.092;2022-08-21T09:49:28;24.40;70.30
8914;DHT22;4492;48.736;9.092;2022-08-21T09:51:55;24.50;70.70
8914;DHT22;4492;48.736;9.092;2022-08-21T09:54:34;24.70;71.30
8914;DHT22;4492;48.736;9.092;2022-08-21T09:57:27;24.90;70.80
8914;DHT22;4492;48.736;9.092;2022-08-21T10:00:25;24.80;69.30
8914;DHT22;4492;48.736;9.092;2022-08-21T10:02:51;24.40;70.90
8914;DHT22;4492;48.736;9.092;2022-08-21T10:05:26;24.10;71.80
8914;DHT22;4492;48.736;9.092;2022-08-21T10:07:52;23.80;71.70
8914;DHT22;4492;48.736;9.092;2022-08-21T10:10:28;23.60;72.40
8914;DHT22;4492;48.736;9.092;2022-08-21T10:13:01;23.30;73.10
8914;DHT22;4492;48.736;9.092;2022-08-21T10:16:08;23.20;74.00
8914;DHT22;4492;48.736;9.092;2022-08-21T10:21:27;23.10;73.70
8914;DHT22;4492;48.736;9.092;2022-08-21T10:24:12;23.00;74.20
8914;DHT22;4492;48.736;9.092;2022-08-21T10:30:06;22.90;74.30
8914;DHT22;4492;48.736;9.092;2022-08-21T10:32:57;22.70;73.70
8914;DHT22;4492;48.736;9.092;2022-08-21T10:35:39;22.60;74.20
8914;DHT22;4492;48.736;9.092;2022-08-21T10:41:03;22.60;74.40
8914;DHT22;4492;48.736;9.092;2022-08-21T10:44:14;22.60;75.10
8914;DHT22;4492;48.736;9.092;2022-08-21T10:50:02;22.90;75.40
8914;DHT22;4492;48.736;9.092;2022-08-21T10:52:37;23.30;73.80
8914;DHT22;4492;48.736;9.092;2022-08-21T11:00:26;24.00;72.00
8914;DHT22;4492;48.736;9.092;2022-08-21T11:03:12;23.90;72.60
8914;DHT22;4492;48.736;9.092;2022-08-21T11:05:44;23.80;73.10
8914;DHT22;4492;48.736;9.092;2022-08-21T11:08:21;23.70;73.50
8914;DHT22;4492;48.736;9.092;2022-08-21T11:10:52;23.70;73.50
8914;DHT22;4492;48.736;9.092;2022-08-21T11:16:12;24.30;71.50
8914;DHT22;4492;48.736;9.092;2022-08-21T11:18:49;24.30;69.90
8914;DHT22;4492;48.736;9.092;2022-08-21T11:24:14;25.00;71.50
8914;DHT22;4492;48.736;9.092;2022-08-21T11:29:33;25.60;67.20
8914;DHT22;4492;48.736;9.092;2022-08-21T11:32:42;25.80;66.50
8914;DHT22;4492;48.736;9.092;2022-08-21T11:35:39;25.90;65.30
8914;DHT22;4492;48.736;9.092;2022-08-21T11:38:28;26.00;65.80
8914;DHT22;4492;48.736;9.092;2022-08-21T11:41:29;26.30;66.50
8914;DHT22;4492;48.736;9.092;2022-08-21T11:44:23;26.40;64.70
8914;DHT22;4492;48.736;9.092;2022-08-21T11:47:12;26.60;62.70
8914;DHT22;4492;48.736;9.092;2022-08-21T11:52:28;26.90;61.20
8914;DHT22;4492;48.736;9.092;2022-08-21T11:57:45;26.80;62.70
8914;DHT22;4492;48.736;9.092;2022-08-21T12:00:25;26.70;63.70
8914;DHT22;4492;48.736;9.092;2022-08-21T12:02:58;26.70;63.20
8914;DHT22;4492;48.736;9.092;2022-08-21T12:05:34;26.80;63.10
8914;DHT22;4492;48.736;9.092;2022-08-21T12:08:15;26.70;62.60
8914;DHT22;4492;48.736;9.092;2022-08-21T12:11:06;26.70;62.20
8914;DHT22;4492;48.736;9.092;2022-08-21T12:13:39;26.80;60.90
8914;DHT22;4492;48.736;9.092;2022-08-21T12:16:11;26.50;62.20
8914;DHT22;4492;48.736;9.092;2022-08-21T12:18:37;26.40;63.00
8914;DHT22;4492;48.736;9.092;2022-08-21T12:21:27;26.30;62.40
8914;DHT22;4492;48.736;9.092;2022-08-21T12:27:12;25.90;61.80
8914;DHT22;4492;48.736;9.092;2022-08-21T12:29:39;25.60;63.00
8914;DHT22;4492;48.736;9.092;2022-08-21T12:34:38;25.40;64.40
8914;DHT22;4492;48.736;9.092;2022-08-21T12:37:21;25.40;63.50
8914;DHT22;4492;48.736;9.092;2022-08-21T12:39:51;25.40;63.80
8914;DHT22;4492;48.736;9.092;2022-08-21T12:42:36;25.40;64.70
8914;DHT22;4492;48.736;9.092;2022-08-21T12:45:17;25.20;64.40
8914;DHT22;4492;48.736;9.092;2022-08-21T12:47:47;25.20;64.70
8914;DHT22;4492;48.736;9.092;2022-08-21T12:56:11;25.60;64.30
8914;DHT22;4492;48.736;9.092;2022-08-21T12:58:40;25.70;63.90
8914;DHT22;4492;48.736;9.092;2022-08-21T13:01:33;25.40;64.50
8914;DHT22;4492;48.736;9.092;2022-08-21T13:04:08;25.30;64.50
8914;DHT22;4492;48.736;9.092;2022-08-21T13:06:46;25.60;64.50
8914;DHT22;4492;48.736;9.092;2022-08-21T13:09:15;26.00;63.40
8914;DHT22;4492;48.736;9.092;2022-08-21T13:11:43;26.30;62.60
8914;DHT22;4492;48.736;9.092;2022-08-21T13:16:58;26.70;60.00
8914;DHT22;4492;48.736;9.092;2022-08-21T13:19:25;26.70;60.60
8914;DHT22;4492;48.736;9.092;2022-08-21T13:21:51;26.70;59.20
8914;DHT22;4492;48.736;9.092;2022-08-21T13:24:25;26.80;59.00
8914;DHT22;4492;48.736;9.092;2022-08-21T13:26:52;26.90;58.70
8914;DHT22;4492;48.736;9.092;2022-08-21T13:29:20;26.90;58.70
8914;DHT22;4492;48.736;9.092;2022-08-21T13:31:53;26.70;59.10
8914;DHT22;4492;48.736;9.092;2022-08-21T13:34:25;26.50;59.40
8914;DHT22;4492;48.736;9.092;2022-08-21T13:36:55;26.50;59.40
8914;DHT22;4492;48.736;9.092;2022-08-21T13:39:21;26.70;58.80
8914;DHT22;4492;48.736;9.092;2022-08-21T13:41:50;26.60;58.80
8914;DHT22;4492;48.736;9.092;2022-08-21T13:44:24;26.70;58.70
8914;DHT22;4492;48.736;9.092;2022-08-21T13:46:59;26.70;58.90
8914;DHT22;4492;48.736;9.092;2022-08-21T13:49:38;26.70;57.40
8914;DHT22;4492;48.736;9.092;2022-08-21T13:52:12;26.80;57.80
8914;DHT22;4492;48.736;9.092;2022-08-21T13:54:43;26.80;57.30
8914;DHT22;4492;48.736;9.092;2022-08-21T13:57:19;26.70;57.50
8914;DHT22;4492;48.736;9.092;2022-08-21T13:59:49;26.70;57.00
8914;DHT22;4492;48.736;9.092;2022-08-21T14:02:18;26.60;57.70
8914;DHT22;4492;48.736;9.092;2022-08-21T14:05:14;26.50;57.60
8914;DHT22;4492;48.736;9.092;2022-08-21T14:07:42;26.30;58.20
8914;DHT22;4492;48.736;9.092;2022-08-21T14:10:18;26.30;58.20
8914;DHT22;4492;48.736;9.092;2022-08-21T14:12:54;26.40;58.30
8914;DHT22;4492;48.736;9.092;2022-08-21T14:15:26;26.40;57.70
8914;DHT22;4492;48.736;9.092;2022-08-21T14:17:54;26.40;58.50
8914;DHT22;4492;48.736;9.092;2022-08-21T14:20:28;26.50;57.90
8914;DHT22;4492;48.736;9.092;2022-08-21T14:22:55;26.60;58.30
8914;DHT22;4492;48.736;9.092;2022-08-21T14:28:08;27.10;56.60
8914;DHT22;4492;48.736;9.092;2022-08-21T14:30:39;27.20;56.50
8914;DHT22;4492;48.736;9.092;2022-08-21T14:33:09;27.50;55.70
8914;DHT22;4492;48.736;9.092;2022-08-21T14:35:35;27.80;54.80
8914;DHT22;4492;48.736;9.092;2022-08-21T14:38:01;27.50;54.80
8914;DHT22;4492;48.736;9.092;2022-08-21T14:40:26;27.60;55.00
8914;DHT22;4492;48.736;9.092;2022-08-21T14:42:52;27.80;54.20
8914;DHT22;4492;48.736;9.092;2022-08-21T14:45:20;28.10;53.40
8914;DHT22;4492;48.736;9.092;2022-08-21T14:47:47;28.20;53.30
8914;DHT22;4492;48.736;9.092;2022-08-21T14:50:13;28.30;53.50
8914;DHT22;4492;48.736;9.092;2022-08-21T14:52:39;28.20;53.30
8914;DHT22;4492;48.736;9.092;2022-08-21T14:55:06;28.10;53.70
8914;DHT22;4492;48.736;9.092;2022-08-21T14:57:32;28.20;53.10
8914;DHT22;4492;48.736;9.092;2022-08-21T14:59:59;27.90;52.50
8914;DHT22;4492;48.736;9.092;2022-08-21T15:02:26;27.40;53.30
8914;DHT22;4492;48.736;9.092;2022-08-21T15:04:51;27.00;54.10
8914;DHT22;4492;48.736;9.092;2022-08-21T15:07:17;26.60;54.80
8914;DHT22;4492;48.736;9.092;2022-08-21T15:09:43;26.30;55.50
8914;DHT22;4492;48.736;9.092;2022-08-21T15:12:08;26.20;55.80
8914;DHT22;4492;48.736;9.092;2022-08-21T15:14:37;26.30;55.30
8914;DHT22;4492;48.736;9.092;2022-08-21T15:17:06;26.40;55.50
8914;DHT22;4492;48.736;9.092;2022-08-21T15:19:36;26.60;54.90
8914;DHT22;4492;48.736;9.092;2022-08-21T15:22:02;26.80;54.70
8914;DHT22;4492;48.736;9.092;2022-08-21T15:24:28;27.00;54.10
8914;DHT22;4492;48.736;9.092;2022-08-21T15:26:54;26.90;54.10
8914;DHT22;4492;48.736;9.092;2022-08-21T15:29:20;27.10;53.70
8914;DHT22;4492;48.736;9.092;2022-08-21T15:31:52;27.20;53.00
8914;DHT22;4492;48.736;9.092;2022-08-21T15:34:19;27.20;52.70
8914;DHT22;4492;48.736;9.092;2022-08-21T15:36:45;27.40;52.60
8914;DHT22;4492;48.736;9.092;2022-08-21T15:39:10;27.40;52.90
8914;DHT22;4492;48.736;9.092;2022-08-21T15:41:36;27.50;51.90
8914;DHT22;4492;48.736;9.092;2022-08-21T15:44:02;27.60;51.60
8914;DHT22;4492;48.736;9.092;2022-08-21T15:46:27;27.70;51.50
8914;DHT22;4492;48.736;9.092;2022-08-21T15:48:53;28.00;50.70
8914;DHT22;4492;48.736;9.092;2022-08-21T15:51:18;28.30;50.80
8914;DHT22;4492;48.736;9.092;2022-08-21T15:53:44;28.60;50.00
8914;DHT22;4492;48.736;9.092;2022-08-21T15:56:21;28.80;50.00
8914;DHT22;4492;48.736;9.092;2022-08-21T15:58:52;29.10;48.60
8914;DHT22;4492;48.736;9.092;2022-08-21T16:01:18;29.10;48.70
8914;DHT22;4492;48.736;9.092;2022-08-21T16:03:48;28.90;48.60
8914;DHT22;4492;48.736;9.092;2022-08-21T16:06:13;28.80;48.30
8914;DHT22;4492;48.736;9.092;2022-08-21T16:08:39;28.60;48.90
8914;DHT22;4492;48.736;9.092;2022-08-21T16:11:05;28.50;49.20
8914;DHT22;4492;48.736;9.092;2022-08-21T16:13:39;28.40;49.00
8914;DHT22;4492;48.736;9.092;2022-08-21T16:16:08;28.20;49.30
8914;DHT22;4492;48.736;9.092;2022-08-21T16:18:34;28.00;49.90
8914;DHT22;4492;48.736;9.092;2022-08-21T16:21:00;28.00;50.00
8914;DHT22;4492;48.736;9.092;2022-08-21T16:23:25;28.10;50.20
8914;DHT22;4492;48.736;9.092;2022-08-21T16:25:51;28.20;50.00
8914;DHT22;4492;48.736;9.092;2022-08-21T16:28:18;28.30;49.90
8914;DHT22;4492;48.736;9.092;2022-08-21T16:30:48;28.30;49.00
8914;DHT22;4492;48.736;9.092;2022-08-21T16:33:24;28.20;49.10
8914;DHT22;4492;48.736;9.092;2022-08-21T16:35:52;28.00;49.40
8914;DHT22;4492;48.736;9.092;2022-08-21T16:38:17;27.90;50.00
8914;DHT22;4492;48.736;9.092;2022-08-21T16:40:43;28.00;49.30
8914;DHT22;4492;48.736;9.092;2022-08-21T16:43:09;28.00;49.20
8914;DHT22;4492;48.736;9.092;2022-08-21T16:45:35;27.90;49.60
8914;DHT22;4492;48.736;9.092;2022-08-21T16:48:01;27.60;50.30
8914;DHT22;4492;48.736;9.092;2022-08-21T16:50:28;27.30;50.30
8914;DHT22;4492;48.736;9.092;2022-08-21T16:52:54;27.20;50.10
8914;DHT22;4492;48.736;9.092;2022-08-21T16:55:20;27.30;49.60
8914;DHT22;4492;48.736;9.092;2022-08-21T16:57:45;27.20;50.60
8914;DHT22;4492;48.736;9.092;2022-08-21T17:00:12;27.00;51.10
8914;DHT22;4492;48.736;9.092;2022-08-21T17:02:45;27.30;50.10
8914;DHT22;4492;48.736;9.092;2022-08-21T17:05:11;27.70;49.50
8914;DHT22;4492;48.736;9.092;2022-08-21T17:07:38;27.90;49.40
8914;DHT22;4492;48.736;9.092;2022-08-21T17:10:05;27.90;49.40
8914;DHT22;4492;48.736;9.092;2022-08-21T17:12:31;28.10;48.70